sensor_id;sensor_type;location;lat;lon;timestamp;P1;durP1;ratioP1;P2;durP2;ratioP2
43662;SDS011;74813;56.104;40.358;2024-03-22T00:02:00;13.65;;;3.70;;
43662;SDS011;74813;56.104;40.358;2024-03-22T00:04:32;10.77;;;2.55;;
43662;SDS011;74813;56.104;40.358;2024-03-22T00:07:05;13.30;;;3.22;;
43662;SDS011;74813;56.104;40.358;2024-03-22T00:09:37;12.55;;;3.72;;
43662;SDS011;74813;56.104;40.358;2024-03-22T00:12:10;11.32;;;3.42;;
43662;SDS011;74813;56.104;40.358;2024-03-22T00:14:42;13.27;;;3.33;;
43662;SDS011;74813;56.104;40.358;2024-03-22T00:17:14;15.15;;;3.63;;
43662;SDS011;74813;56.104;40.358;2024-03-22T00:19:47;15.00;;;3.78;;
43662;SDS011;74813;56.104;40.358;2024-03-22T00:22:19;9.73;;;3.55;;
43662;SDS011;74813;56.104;40.358;2024-03-22T00:24:51;10.52;;;3.22;;
43662;SDS011;74813;56.104;40.358;2024-03-22T00:27:24;11.45;;;3.15;;
43662;SDS011;74813;56.104;40.358;2024-03-22T00:29:56;9.50;;;3.30;;
43662;SDS011;74813;56.104;40.358;2024-03-22T00:32:28;11.15;;;3.85;;
43662;SDS011;74813;56.104;40.358;2024-03-22T00:35:01;17.65;;;5.25;;
43662;SDS011;74813;56.104;40.358;2024-03-22T00:37:35;12.15;;;4.15;;
43662;SDS011;74813;56.104;40.358;2024-03-22T00:40:08;16.63;;;3.53;;
43662;SDS011;74813;56.104;40.358;2024-03-22T00:42:40;13.57;;;3.85;;
43662;SDS011;74813;56.104;40.358;2024-03-22T00:45:13;13.73;;;3.80;;
43662;SDS011;74813;56.104;40.358;2024-03-22T00:47:45;13.98;;;4.00;;
43662;SDS011;74813;56.104;40.358;2024-03-22T00:50:18;11.57;;;3.78;;
43662;SDS011;74813;56.104;40.358;2024-03-22T00:52:50;11.27;;;3.70;;
43662;SDS011;74813;56.104;40.358;2024-03-22T00:55:23;10.15;;;4.15;;
43662;SDS011;74813;56.104;40.358;2024-03-22T00:57:56;13.27;;;3.90;;
43662;SDS011;74813;56.104;40.358;2024-03-22T01:00:28;15.45;;;4.57;;
43662;SDS011;74813;56.104;40.358;2024-03-22T01:03:01;10.38;;;3.80;;
43662;SDS011;74813;56.104;40.358;2024-03-22T01:05:33;11.23;;;3.65;;
43662;SDS011;74813;56.104;40.358;2024-03-22T01:08:05;14.25;;;3.78;;
43662;SDS011;74813;56.104;40.358;2024-03-22T01:10:38;13.10;;;3.92;;
43662;SDS011;74813;56.104;40.358;2024-03-22T01:13:11;8.88;;;3.88;;
43662;SDS011;74813;56.104;40.358;2024-03-22T01:15:43;12.10;;;4.15;;
43662;SDS011;74813;56.104;40.358;2024-03-22T01:18:15;16.63;;;4.30;;
43662;SDS011;74813;56.104;40.358;2024-03-22T01:20:48;16.20;;;4.75;;
43662;SDS011;74813;56.104;40.358;2024-03-22T01:23:20;28.23;;;7.63;;
43662;SDS011;74813;56.104;40.358;2024-03-22T01:25:52;11.63;;;4.75;;
43662;SDS011;74813;56.104;40.358;2024-03-22T01:28:25;15.13;;;4.93;;
43662;SDS011;74813;56.104;40.358;2024-03-22T01:30:57;16.63;;;5.43;;
43662;SDS011;74813;56.104;40.358;2024-03-22T01:33:30;23.33;;;7.63;;
43662;SDS011;74813;56.104;40.358;2024-03-22T01:36:02;14.63;;;5.22;;
43662;SDS011;74813;56.104;40.358;2024-03-22T01:38:35;14.90;;;5.03;;
43662;SDS011;74813;56.104;40.358;2024-03-22T01:41:07;14.38;;;5.60;;
43662;SDS011;74813;56.104;40.358;2024-03-22T01:43:39;12.43;;;5.25;;
43662;SDS011;74813;56.104;40.358;2024-03-22T01:46:12;13.85;;;5.63;;
43662;SDS011;74813;56.104;40.358;2024-03-22T01:48:44;14.30;;;5.25;;
43662;SDS011;74813;56.104;40.358;2024-03-22T01:51:17;13.38;;;5.50;;
43662;SDS011;74813;56.104;40.358;2024-03-22T01:53:50;14.52;;;5.03;;
43662;SDS011;74813;56.104;40.358;2024-03-22T01:56:24;19.42;;;6.82;;
43662;SDS011;74813;56.104;40.358;2024-03-22T01:58:56;19.13;;;6.28;;
43662;SDS011;74813;56.104;40.358;2024-03-22T02:01:29;12.82;;;5.28;;
43662;SDS011;74813;56.104;40.358;2024-03-22T02:04:02;15.27;;;6.60;;
43662;SDS011;74813;56.104;40.358;2024-03-22T02:06:34;13.95;;;5.90;;
43662;SDS011;74813;56.104;40.358;2024-03-22T02:09:07;14.57;;;6.13;;
43662;SDS011;74813;56.104;40.358;2024-03-22T02:11:39;13.35;;;5.72;;
43662;SDS011;74813;56.104;40.358;2024-03-22T02:14:12;15.00;;;6.18;;
43662;SDS011;74813;56.104;40.358;2024-03-22T02:16:45;13.65;;;6.05;;
43662;SDS011;74813;56.104;40.358;2024-03-22T02:19:17;15.43;;;7.25;;
43662;SDS011;74813;56.104;40.358;2024-03-22T02:21:49;12.25;;;5.57;;
43662;SDS011;74813;56.104;40.358;2024-03-22T02:24:22;14.32;;;5.90;;
43662;SDS011;74813;56.104;40.358;2024-03-22T02:26:54;14.68;;;5.85;;
43662;SDS011;74813;56.104;40.358;2024-03-22T02:29:27;14.15;;;5.68;;
43662;SDS011;74813;56.104;40.358;2024-03-22T02:31:59;14.25;;;5.07;;
43662;SDS011;74813;56.104;40.358;2024-03-22T02:34:31;14.15;;;6.28;;
43662;SDS011;74813;56.104;40.358;2024-03-22T02:37:04;17.17;;;7.28;;
43662;SDS011;74813;56.104;40.358;2024-03-22T02:39:36;16.45;;;7.53;;
43662;SDS011;74813;56.104;40.358;2024-03-22T02:42:08;16.50;;;6.57;;
43662;SDS011;74813;56.104;40.358;2024-03-22T02:44:41;16.05;;;6.53;;
43662;SDS011;74813;56.104;40.358;2024-03-22T02:47:13;20.67;;;6.32;;
43662;SDS011;74813;56.104;40.358;2024-03-22T02:49:46;21.02;;;6.93;;
43662;SDS011;74813;56.104;40.358;2024-03-22T02:52:18;15.38;;;6.50;;
43662;SDS011;74813;56.104;40.358;2024-03-22T02:54:50;22.23;;;7.32;;
43662;SDS011;74813;56.104;40.358;2024-03-22T02:57:23;14.45;;;6.63;;
43662;SDS011;74813;56.104;40.358;2024-03-22T02:59:55;19.25;;;6.25;;
43662;SDS011;74813;56.104;40.358;2024-03-22T03:02:27;19.23;;;8.02;;
43662;SDS011;74813;56.104;40.358;2024-03-22T03:05:00;16.27;;;6.47;;
43662;SDS011;74813;56.104;40.358;2024-03-22T03:07:32;21.98;;;7.97;;
43662;SDS011;74813;56.104;40.358;2024-03-22T03:10:05;18.13;;;8.07;;
43662;SDS011;74813;56.104;40.358;2024-03-22T03:12:37;19.90;;;8.60;;
43662;SDS011;74813;56.104;40.358;2024-03-22T03:15:10;19.50;;;8.43;;
43662;SDS011;74813;56.104;40.358;2024-03-22T03:17:42;16.42;;;8.07;;
43662;SDS011;74813;56.104;40.358;2024-03-22T03:20:15;18.77;;;8.45;;
43662;SDS011;74813;56.104;40.358;2024-03-22T03:22:48;26.35;;;11.65;;
43662;SDS011;74813;56.104;40.358;2024-03-22T03:25:20;22.02;;;9.73;;
43662;SDS011;74813;56.104;40.358;2024-03-22T03:27:53;23.23;;;9.77;;
43662;SDS011;74813;56.104;40.358;2024-03-22T03:30:25;20.15;;;9.48;;
43662;SDS011;74813;56.104;40.358;2024-03-22T03:32:57;21.45;;;9.32;;
43662;SDS011;74813;56.104;40.358;2024-03-22T03:35:30;21.23;;;10.13;;
43662;SDS011;74813;56.104;40.358;2024-03-22T03:38:02;23.13;;;10.88;;
43662;SDS011;74813;56.104;40.358;2024-03-22T03:40:35;24.13;;;11.40;;
43662;SDS011;74813;56.104;40.358;2024-03-22T03:43:07;23.42;;;10.88;;
43662;SDS011;74813;56.104;40.358;2024-03-22T03:45:40;22.15;;;10.15;;
43662;SDS011;74813;56.104;40.358;2024-03-22T03:48:12;18.15;;;9.52;;
43662;SDS011;74813;56.104;40.358;2024-03-22T03:50:50;23.77;;;11.02;;
43662;SDS011;74813;56.104;40.358;2024-03-22T03:53:26;24.52;;;10.32;;
43662;SDS011;74813;56.104;40.358;2024-03-22T03:55:58;25.83;;;10.88;;
43662;SDS011;74813;56.104;40.358;2024-03-22T03:58:30;24.80;;;10.00;;
43662;SDS011;74813;56.104;40.358;2024-03-22T04:01:06;22.13;;;10.43;;
43662;SDS011;74813;56.104;40.358;2024-03-22T04:03:39;21.15;;;10.45;;
43662;SDS011;74813;56.104;40.358;2024-03-22T04:06:11;22.42;;;10.75;;
43662;SDS011;74813;56.104;40.358;2024-03-22T04:08:44;25.02;;;11.27;;
43662;SDS011;74813;56.104;40.358;2024-03-22T04:11:17;27.90;;;13.10;;
43662;SDS011;74813;56.104;40.358;2024-03-22T04:13:49;25.27;;;10.63;;
43662;SDS011;74813;56.104;40.358;2024-03-22T04:16:21;21.75;;;12.25;;
43662;SDS011;74813;56.104;40.358;2024-03-22T04:18:54;26.58;;;13.15;;
43662;SDS011;74813;56.104;40.358;2024-03-22T04:21:26;22.65;;;10.95;;
43662;SDS011;74813;56.104;40.358;2024-03-22T04:23:59;25.02;;;12.30;;
43662;SDS011;74813;56.104;40.358;2024-03-22T04:26:31;29.70;;;14.00;;
43662;SDS011;74813;56.104;40.358;2024-03-22T04:29:03;31.95;;;15.75;;
43662;SDS011;74813;56.104;40.358;2024-03-22T04:31:36;35.03;;;18.30;;
43662;SDS011;74813;56.104;40.358;2024-03-22T04:34:08;37.35;;;17.35;;
43662;SDS011;74813;56.104;40.358;2024-03-22T04:36:41;32.92;;;15.77;;
43662;SDS011;74813;56.104;40.358;2024-03-22T04:39:13;25.15;;;14.52;;
43662;SDS011;74813;56.104;40.358;2024-03-22T04:41:45;28.40;;;16.23;;
43662;SDS011;74813;56.104;40.358;2024-03-22T04:44:18;34.95;;;18.08;;
43662;SDS011;74813;56.104;40.358;2024-03-22T04:46:50;27.20;;;15.07;;
43662;SDS011;74813;56.104;40.358;2024-03-22T04:49:22;24.52;;;13.35;;
43662;SDS011;74813;56.104;40.358;2024-03-22T04:51:55;25.77;;;12.60;;
43662;SDS011;74813;56.104;40.358;2024-03-22T04:54:27;25.65;;;12.88;;
43662;SDS011;74813;56.104;40.358;2024-03-22T04:57:00;20.17;;;11.65;;
43662;SDS011;74813;56.104;40.358;2024-03-22T04:59:32;29.90;;;13.27;;
43662;SDS011;74813;56.104;40.358;2024-03-22T05:02:04;27.33;;;14.02;;
43662;SDS011;74813;56.104;40.358;2024-03-22T05:04:37;29.85;;;14.98;;
43662;SDS011;74813;56.104;40.358;2024-03-22T05:07:09;27.85;;;13.85;;
43662;SDS011;74813;56.104;40.358;2024-03-22T05:09:42;32.90;;;14.80;;
43662;SDS011;74813;56.104;40.358;2024-03-22T05:12:14;46.70;;;18.05;;
43662;SDS011;74813;56.104;40.358;2024-03-22T05:14:46;35.42;;;15.52;;
43662;SDS011;74813;56.104;40.358;2024-03-22T05:17:19;57.50;;;23.65;;
43662;SDS011;74813;56.104;40.358;2024-03-22T05:19:51;34.10;;;16.45;;
43662;SDS011;74813;56.104;40.358;2024-03-22T05:22:24;32.17;;;15.45;;
43662;SDS011;74813;56.104;40.358;2024-03-22T05:24:56;31.55;;;15.40;;
43662;SDS011;74813;56.104;40.358;2024-03-22T05:27:30;32.47;;;15.30;;
43662;SDS011;74813;56.104;40.358;2024-03-22T05:30:03;46.00;;;20.27;;
43662;SDS011;74813;56.104;40.358;2024-03-22T05:32:38;50.15;;;20.77;;
43662;SDS011;74813;56.104;40.358;2024-03-22T05:35:11;46.28;;;18.42;;
43662;SDS011;74813;56.104;40.358;2024-03-22T05:37:43;56.80;;;21.17;;
43662;SDS011;74813;56.104;40.358;2024-03-22T05:40:16;48.40;;;21.08;;
43662;SDS011;74813;56.104;40.358;2024-03-22T05:42:48;43.55;;;19.85;;
43662;SDS011;74813;56.104;40.358;2024-03-22T05:45:21;47.65;;;20.13;;
43662;SDS011;74813;56.104;40.358;2024-03-22T05:47:53;44.28;;;18.65;;
43662;SDS011;74813;56.104;40.358;2024-03-22T05:50:25;36.67;;;16.77;;
43662;SDS011;74813;56.104;40.358;2024-03-22T05:52:58;47.35;;;19.77;;
43662;SDS011;74813;56.104;40.358;2024-03-22T05:55:30;38.70;;;18.52;;
43662;SDS011;74813;56.104;40.358;2024-03-22T05:58:02;32.97;;;16.52;;
43662;SDS011;74813;56.104;40.358;2024-03-22T06:00:35;39.95;;;15.13;;
43662;SDS011;74813;56.104;40.358;2024-03-22T06:03:07;34.58;;;15.73;;
43662;SDS011;74813;56.104;40.358;2024-03-22T06:05:40;33.08;;;15.30;;
43662;SDS011;74813;56.104;40.358;2024-03-22T06:08:12;27.20;;;14.73;;
43662;SDS011;74813;56.104;40.358;2024-03-22T06:10:45;26.23;;;13.55;;
43662;SDS011;74813;56.104;40.358;2024-03-22T06:13:17;25.42;;;13.60;;
43662;SDS011;74813;56.104;40.358;2024-03-22T06:15:50;22.90;;;12.85;;
43662;SDS011;74813;56.104;40.358;2024-03-22T06:18:22;22.40;;;11.43;;
43662;SDS011;74813;56.104;40.358;2024-03-22T06:20:55;30.58;;;13.05;;
43662;SDS011;74813;56.104;40.358;2024-03-22T06:23:27;22.20;;;11.30;;
43662;SDS011;74813;56.104;40.358;2024-03-22T06:26:00;25.83;;;12.60;;
43662;SDS011;74813;56.104;40.358;2024-03-22T06:28:32;24.35;;;12.25;;
43662;SDS011;74813;56.104;40.358;2024-03-22T06:31:04;24.42;;;12.05;;
43662;SDS011;74813;56.104;40.358;2024-03-22T06:33:37;24.02;;;12.98;;
43662;SDS011;74813;56.104;40.358;2024-03-22T06:36:09;27.33;;;13.02;;
43662;SDS011;74813;56.104;40.358;2024-03-22T06:38:42;23.73;;;12.88;;
43662;SDS011;74813;56.104;40.358;2024-03-22T06:41:14;26.38;;;12.98;;
43662;SDS011;74813;56.104;40.358;2024-03-22T06:43:46;27.13;;;12.93;;
43662;SDS011;74813;56.104;40.358;2024-03-22T06:46:19;29.48;;;14.63;;
43662;SDS011;74813;56.104;40.358;2024-03-22T06:48:51;32.47;;;16.08;;
43662;SDS011;74813;56.104;40.358;2024-03-22T06:51:24;31.75;;;16.20;;
43662;SDS011;74813;56.104;40.358;2024-03-22T06:53:56;29.70;;;14.65;;
43662;SDS011;74813;56.104;40.358;2024-03-22T06:56:29;31.98;;;17.70;;
43662;SDS011;74813;56.104;40.358;2024-03-22T06:59:01;32.97;;;16.38;;
43662;SDS011;74813;56.104;40.358;2024-03-22T07:01:34;32.50;;;16.55;;
43662;SDS011;74813;56.104;40.358;2024-03-22T07:04:08;27.92;;;15.80;;
43662;SDS011;74813;56.104;40.358;2024-03-22T07:06:41;29.50;;;15.23;;
43662;SDS011;74813;56.104;40.358;2024-03-22T07:09:13;27.30;;;16.80;;
43662;SDS011;74813;56.104;40.358;2024-03-22T07:11:45;28.20;;;16.48;;
43662;SDS011;74813;56.104;40.358;2024-03-22T07:14:18;31.27;;;16.55;;
43662;SDS011;74813;56.104;40.358;2024-03-22T07:16:50;23.85;;;15.43;;
43662;SDS011;74813;56.104;40.358;2024-03-22T07:19:23;26.30;;;15.82;;
43662;SDS011;74813;56.104;40.358;2024-03-22T07:21:55;24.02;;;15.70;;
43662;SDS011;74813;56.104;40.358;2024-03-22T07:24:28;25.80;;;16.08;;
43662;SDS011;74813;56.104;40.358;2024-03-22T07:27:00;21.67;;;13.80;;
43662;SDS011;74813;56.104;40.358;2024-03-22T07:29:32;40.05;;;20.25;;
43662;SDS011;74813;56.104;40.358;2024-03-22T07:32:05;18.48;;;11.98;;
43662;SDS011;74813;56.104;40.358;2024-03-22T07:34:37;24.27;;;13.80;;
43662;SDS011;74813;56.104;40.358;2024-03-22T07:37:10;21.73;;;13.23;;
43662;SDS011;74813;56.104;40.358;2024-03-22T07:39:42;36.42;;;16.75;;
43662;SDS011;74813;56.104;40.358;2024-03-22T07:42:14;16.42;;;9.68;;
43662;SDS011;74813;56.104;40.358;2024-03-22T07:44:47;19.95;;;10.65;;
43662;SDS011;74813;56.104;40.358;2024-03-22T07:47:19;23.60;;;11.75;;
43662;SDS011;74813;56.104;40.358;2024-03-22T07:49:52;15.05;;;9.50;;
43662;SDS011;74813;56.104;40.358;2024-03-22T07:52:24;22.13;;;10.80;;
43662;SDS011;74813;56.104;40.358;2024-03-22T07:54:56;15.98;;;7.75;;
43662;SDS011;74813;56.104;40.358;2024-03-22T07:57:29;13.65;;;6.28;;
43662;SDS011;74813;56.104;40.358;2024-03-22T08:00:01;10.93;;;6.57;;
43662;SDS011;74813;56.104;40.358;2024-03-22T08:02:37;10.38;;;6.18;;
43662;SDS011;74813;56.104;40.358;2024-03-22T08:05:09;8.70;;;4.60;;
43662;SDS011;74813;56.104;40.358;2024-03-22T08:07:41;8.88;;;4.88;;
43662;SDS011;74813;56.104;40.358;2024-03-22T08:10:14;8.50;;;4.50;;
43662;SDS011;74813;56.104;40.358;2024-03-22T08:12:46;9.25;;;4.57;;
43662;SDS011;74813;56.104;40.358;2024-03-22T08:15:18;9.35;;;4.68;;
43662;SDS011;74813;56.104;40.358;2024-03-22T08:17:51;11.88;;;5.07;;
43662;SDS011;74813;56.104;40.358;2024-03-22T08:20:23;11.95;;;5.72;;
43662;SDS011;74813;56.104;40.358;2024-03-22T08:22:56;17.48;;;10.70;;
43662;SDS011;74813;56.104;40.358;2024-03-22T08:25:28;15.38;;;6.97;;
43662;SDS011;74813;56.104;40.358;2024-03-22T08:28:01;10.10;;;4.75;;
43662;SDS011;74813;56.104;40.358;2024-03-22T08:30:36;7.72;;;4.28;;
43662;SDS011;74813;56.104;40.358;2024-03-22T08:33:10;9.43;;;4.95;;
43662;SDS011;74813;56.104;40.358;2024-03-22T08:35:42;15.95;;;8.93;;
43662;SDS011;74813;56.104;40.358;2024-03-22T08:38:15;9.55;;;5.07;;
43662;SDS011;74813;56.104;40.358;2024-03-22T08:40:47;11.10;;;4.43;;
43662;SDS011;74813;56.104;40.358;2024-03-22T08:43:20;12.48;;;6.80;;
43662;SDS011;74813;56.104;40.358;2024-03-22T08:45:53;10.70;;;3.97;;
43662;SDS011;74813;56.104;40.358;2024-03-22T08:48:25;8.02;;;4.30;;
43662;SDS011;74813;56.104;40.358;2024-03-22T08:50:58;9.85;;;4.22;;
43662;SDS011;74813;56.104;40.358;2024-03-22T08:53:30;9.10;;;3.63;;
43662;SDS011;74813;56.104;40.358;2024-03-22T08:56:03;7.00;;;3.17;;
43662;SDS011;74813;56.104;40.358;2024-03-22T08:58:35;5.57;;;2.53;;
43662;SDS011;74813;56.104;40.358;2024-03-22T09:01:08;5.28;;;2.25;;
43662;SDS011;74813;56.104;40.358;2024-03-22T09:03:40;5.25;;;1.92;;
43662;SDS011;74813;56.104;40.358;2024-03-22T09:06:12;6.30;;;2.53;;
43662;SDS011;74813;56.104;40.358;2024-03-22T09:08:45;4.40;;;2.38;;
43662;SDS011;74813;56.104;40.358;2024-03-22T09:11:17;7.88;;;3.08;;
43662;SDS011;74813;56.104;40.358;2024-03-22T09:13:53;6.78;;;2.88;;
43662;SDS011;74813;56.104;40.358;2024-03-22T09:16:25;9.18;;;4.35;;
43662;SDS011;74813;56.104;40.358;2024-03-22T09:18:58;5.22;;;2.13;;
43662;SDS011;74813;56.104;40.358;2024-03-22T09:21:30;5.30;;;2.42;;
43662;SDS011;74813;56.104;40.358;2024-03-22T09:24:02;10.52;;;3.22;;
43662;SDS011;74813;56.104;40.358;2024-03-22T09:26:35;6.70;;;3.47;;
43662;SDS011;74813;56.104;40.358;2024-03-22T09:29:08;6.97;;;2.95;;
43662;SDS011;74813;56.104;40.358;2024-03-22T09:31:40;6.22;;;2.50;;
43662;SDS011;74813;56.104;40.358;2024-03-22T09:34:12;7.63;;;3.25;;
43662;SDS011;74813;56.104;40.358;2024-03-22T09:36:45;6.75;;;3.05;;
43662;SDS011;74813;56.104;40.358;2024-03-22T09:39:17;7.10;;;2.38;;
43662;SDS011;74813;56.104;40.358;2024-03-22T09:41:50;9.18;;;3.08;;
43662;SDS011;74813;56.104;40.358;2024-03-22T09:44:23;6.22;;;3.17;;
43662;SDS011;74813;56.104;40.358;2024-03-22T09:46:58;6.07;;;2.53;;
43662;SDS011;74813;56.104;40.358;2024-03-22T09:49:31;4.38;;;1.88;;
43662;SDS011;74813;56.104;40.358;2024-03-22T09:52:04;5.35;;;1.65;;
43662;SDS011;74813;56.104;40.358;2024-03-22T09:54:38;6.75;;;2.80;;
43662;SDS011;74813;56.104;40.358;2024-03-22T09:57:11;3.35;;;1.73;;
43662;SDS011;74813;56.104;40.358;2024-03-22T09:59:46;5.18;;;2.08;;
43662;SDS011;74813;56.104;40.358;2024-03-22T10:02:19;5.88;;;1.88;;
43662;SDS011;74813;56.104;40.358;2024-03-22T10:04:53;5.95;;;2.47;;
43662;SDS011;74813;56.104;40.358;2024-03-22T10:07:25;5.32;;;1.90;;
43662;SDS011;74813;56.104;40.358;2024-03-22T10:09:58;5.78;;;1.70;;
43662;SDS011;74813;56.104;40.358;2024-03-22T10:12:31;4.82;;;1.48;;
43662;SDS011;74813;56.104;40.358;2024-03-22T10:15:04;5.38;;;1.20;;
43662;SDS011;74813;56.104;40.358;2024-03-22T10:17:37;4.10;;;1.20;;
43662;SDS011;74813;56.104;40.358;2024-03-22T10:20:14;6.25;;;1.40;;
43662;SDS011;74813;56.104;40.358;2024-03-22T10:22:56;10.05;;;4.47;;
43662;SDS011;74813;56.104;40.358;2024-03-22T10:25:30;4.00;;;1.55;;
43662;SDS011;74813;56.104;40.358;2024-03-22T10:28:02;4.70;;;1.92;;
43662;SDS011;74813;56.104;40.358;2024-03-22T10:30:35;2.97;;;1.10;;
43662;SDS011;74813;56.104;40.358;2024-03-22T10:33:09;6.07;;;1.30;;
43662;SDS011;74813;56.104;40.358;2024-03-22T10:35:42;4.82;;;2.00;;
43662;SDS011;74813;56.104;40.358;2024-03-22T10:38:16;3.20;;;1.30;;
43662;SDS011;74813;56.104;40.358;2024-03-22T10:40:54;5.32;;;1.70;;
43662;SDS011;74813;56.104;40.358;2024-03-22T10:43:28;5.10;;;1.45;;
43662;SDS011;74813;56.104;40.358;2024-03-22T10:46:02;3.05;;;1.25;;
43662;SDS011;74813;56.104;40.358;2024-03-22T10:48:34;6.10;;;1.60;;
43662;SDS011;74813;56.104;40.358;2024-03-22T10:51:08;3.80;;;1.00;;
43662;SDS011;74813;56.104;40.358;2024-03-22T10:53:41;4.05;;;1.13;;
43662;SDS011;74813;56.104;40.358;2024-03-22T10:56:14;3.78;;;1.48;;
43662;SDS011;74813;56.104;40.358;2024-03-22T10:58:48;4.75;;;1.65;;
43662;SDS011;74813;56.104;40.358;2024-03-22T11:01:21;4.07;;;1.10;;
43662;SDS011;74813;56.104;40.358;2024-03-22T11:04:04;4.22;;;1.88;;
43662;SDS011;74813;56.104;40.358;2024-03-22T11:06:36;6.63;;;3.95;;
43662;SDS011;74813;56.104;40.358;2024-03-22T11:09:09;9.48;;;5.78;;
43662;SDS011;74813;56.104;40.358;2024-03-22T11:11:41;7.07;;;2.83;;
43662;SDS011;74813;56.104;40.358;2024-03-22T11:14:14;8.63;;;5.07;;
43662;SDS011;74813;56.104;40.358;2024-03-22T11:16:49;5.90;;;2.50;;
43662;SDS011;74813;56.104;40.358;2024-03-22T11:19:22;3.92;;;1.25;;
43662;SDS011;74813;56.104;40.358;2024-03-22T11:21:54;4.85;;;2.10;;
43662;SDS011;74813;56.104;40.358;2024-03-22T11:24:27;5.35;;;2.30;;
43662;SDS011;74813;56.104;40.358;2024-03-22T11:26:59;6.80;;;2.30;;
43662;SDS011;74813;56.104;40.358;2024-03-22T11:29:32;5.30;;;2.30;;
43662;SDS011;74813;56.104;40.358;2024-03-22T11:32:04;5.82;;;2.60;;
43662;SDS011;74813;56.104;40.358;2024-03-22T11:34:37;5.75;;;2.10;;
43662;SDS011;74813;56.104;40.358;2024-03-22T11:37:10;6.63;;;2.58;;
43662;SDS011;74813;56.104;40.358;2024-03-22T11:39:43;5.78;;;2.17;;
43662;SDS011;74813;56.104;40.358;2024-03-22T11:42:15;5.75;;;2.10;;
43662;SDS011;74813;56.104;40.358;2024-03-22T11:44:49;6.65;;;2.28;;
43662;SDS011;74813;56.104;40.358;2024-03-22T11:47:21;5.47;;;2.80;;
43662;SDS011;74813;56.104;40.358;2024-03-22T11:49:55;6.53;;;3.17;;
43662;SDS011;74813;56.104;40.358;2024-03-22T11:52:28;7.50;;;2.92;;
43662;SDS011;74813;56.104;40.358;2024-03-22T11:55:01;5.15;;;2.22;;
43662;SDS011;74813;56.104;40.358;2024-03-22T11:57:34;5.82;;;2.72;;
43662;SDS011;74813;56.104;40.358;2024-03-22T12:00:06;6.18;;;2.60;;
43662;SDS011;74813;56.104;40.358;2024-03-22T12:02:40;4.90;;;2.42;;
43662;SDS011;74813;56.104;40.358;2024-03-22T12:05:12;7.35;;;2.80;;
43662;SDS011;74813;56.104;40.358;2024-03-22T12:07:45;6.72;;;2.63;;
43662;SDS011;74813;56.104;40.358;2024-03-22T12:10:17;12.63;;;10.02;;
43662;SDS011;74813;56.104;40.358;2024-03-22T12:12:50;6.30;;;2.40;;
43662;SDS011;74813;56.104;40.358;2024-03-22T12:15:22;6.85;;;2.85;;
43662;SDS011;74813;56.104;40.358;2024-03-22T12:17:55;9.75;;;2.70;;
43662;SDS011;74813;56.104;40.358;2024-03-22T12:20:27;6.97;;;2.50;;
43662;SDS011;74813;56.104;40.358;2024-03-22T12:23:00;7.53;;;3.08;;
43662;SDS011;74813;56.104;40.358;2024-03-22T12:25:32;6.60;;;2.70;;
43662;SDS011;74813;56.104;40.358;2024-03-22T12:28:04;5.78;;;2.63;;
43662;SDS011;74813;56.104;40.358;2024-03-22T12:30:37;4.97;;;2.28;;
43662;SDS011;74813;56.104;40.358;2024-03-22T12:33:09;6.03;;;2.58;;
43662;SDS011;74813;56.104;40.358;2024-03-22T12:35:42;4.72;;;2.28;;
43662;SDS011;74813;56.104;40.358;2024-03-22T12:38:14;8.02;;;2.70;;
43662;SDS011;74813;56.104;40.358;2024-03-22T12:40:47;5.72;;;2.38;;
43662;SDS011;74813;56.104;40.358;2024-03-22T12:43:19;4.78;;;2.20;;
43662;SDS011;74813;56.104;40.358;2024-03-22T12:45:51;6.95;;;2.47;;
43662;SDS011;74813;56.104;40.358;2024-03-22T12:48:24;6.63;;;3.03;;
43662;SDS011;74813;56.104;40.358;2024-03-22T12:50:56;4.95;;;3.05;;
43662;SDS011;74813;56.104;40.358;2024-03-22T12:53:29;5.47;;;2.50;;
43662;SDS011;74813;56.104;40.358;2024-03-22T12:56:01;5.78;;;2.72;;
43662;SDS011;74813;56.104;40.358;2024-03-22T12:58:33;5.53;;;2.40;;
43662;SDS011;74813;56.104;40.358;2024-03-22T13:01:06;5.20;;;2.80;;
43662;SDS011;74813;56.104;40.358;2024-03-22T13:03:40;6.13;;;3.10;;
43662;SDS011;74813;56.104;40.358;2024-03-22T13:06:13;7.10;;;2.90;;
43662;SDS011;74813;56.104;40.358;2024-03-22T13:08:45;7.68;;;3.20;;
43662;SDS011;74813;56.104;40.358;2024-03-22T13:11:18;8.43;;;3.22;;
43662;SDS011;74813;56.104;40.358;2024-03-22T13:13:50;7.55;;;3.33;;
43662;SDS011;74813;56.104;40.358;2024-03-22T13:16:22;7.63;;;3.35;;
43662;SDS011;74813;56.104;40.358;2024-03-22T13:18:55;7.53;;;4.55;;
43662;SDS011;74813;56.104;40.358;2024-03-22T13:21:27;9.63;;;4.32;;
43662;SDS011;74813;56.104;40.358;2024-03-22T13:24:00;7.47;;;3.50;;
43662;SDS011;74813;56.104;40.358;2024-03-22T13:26:32;8.13;;;4.47;;
43662;SDS011;74813;56.104;40.358;2024-03-22T13:29:04;8.27;;;4.20;;
43662;SDS011;74813;56.104;40.358;2024-03-22T13:31:37;9.43;;;5.25;;
43662;SDS011;74813;56.104;40.358;2024-03-22T13:34:10;6.43;;;3.22;;
43662;SDS011;74813;56.104;40.358;2024-03-22T13:36:43;6.13;;;3.17;;
43662;SDS011;74813;56.104;40.358;2024-03-22T13:39:15;6.93;;;4.05;;
43662;SDS011;74813;56.104;40.358;2024-03-22T13:41:47;8.50;;;3.75;;
43662;SDS011;74813;56.104;40.358;2024-03-22T13:44:20;7.18;;;3.50;;
43662;SDS011;74813;56.104;40.358;2024-03-22T13:46:52;7.03;;;3.35;;
43662;SDS011;74813;56.104;40.358;2024-03-22T13:49:25;11.00;;;3.22;;
43662;SDS011;74813;56.104;40.358;2024-03-22T13:51:57;7.03;;;3.78;;
43662;SDS011;74813;56.104;40.358;2024-03-22T13:54:30;7.47;;;4.53;;
43662;SDS011;74813;56.104;40.358;2024-03-22T13:57:02;8.02;;;4.13;;
43662;SDS011;74813;56.104;40.358;2024-03-22T13:59:35;14.93;;;9.60;;
43662;SDS011;74813;56.104;40.358;2024-03-22T14:02:07;8.30;;;4.47;;
43662;SDS011;74813;56.104;40.358;2024-03-22T14:04:40;7.80;;;4.53;;
43662;SDS011;74813;56.104;40.358;2024-03-22T14:07:12;6.80;;;3.90;;
43662;SDS011;74813;56.104;40.358;2024-03-22T14:09:45;8.57;;;4.03;;
43662;SDS011;74813;56.104;40.358;2024-03-22T14:12:17;7.60;;;4.05;;
43662;SDS011;74813;56.104;40.358;2024-03-22T14:14:49;8.73;;;4.50;;
43662;SDS011;74813;56.104;40.358;2024-03-22T14:17:22;7.20;;;4.28;;
43662;SDS011;74813;56.104;40.358;2024-03-22T14:19:54;8.73;;;4.50;;
43662;SDS011;74813;56.104;40.358;2024-03-22T14:22:26;9.75;;;4.93;;
43662;SDS011;74813;56.104;40.358;2024-03-22T14:24:59;8.32;;;4.63;;
43662;SDS011;74813;56.104;40.358;2024-03-22T14:27:31;7.85;;;5.22;;
43662;SDS011;74813;56.104;40.358;2024-03-22T14:30:04;7.70;;;4.70;;
43662;SDS011;74813;56.104;40.358;2024-03-22T14:32:37;10.15;;;5.43;;
43662;SDS011;74813;56.104;40.358;2024-03-22T14:35:11;10.52;;;5.82;;
43662;SDS011;74813;56.104;40.358;2024-03-22T14:37:43;10.88;;;6.50;;
43662;SDS011;74813;56.104;40.358;2024-03-22T14:40:15;10.95;;;6.55;;
43662;SDS011;74813;56.104;40.358;2024-03-22T14:42:48;12.50;;;6.47;;
43662;SDS011;74813;56.104;40.358;2024-03-22T14:45:20;14.88;;;7.05;;
43662;SDS011;74813;56.104;40.358;2024-03-22T14:47:52;12.23;;;6.47;;
43662;SDS011;74813;56.104;40.358;2024-03-22T14:50:25;12.93;;;6.55;;
43662;SDS011;74813;56.104;40.358;2024-03-22T14:52:57;12.60;;;7.03;;
43662;SDS011;74813;56.104;40.358;2024-03-22T14:55:29;11.13;;;6.82;;